CheckWX is a tool to help pilots better visualize weather data.  It is not intended as a substitute for an official pre-flight weather briefing.

06:56:07 UTC

VTCC METAR
Chiang Mai International Airport
Chiang Mai, Thailand
Current

26 mins ago

VTCC 210630Z VRB02KT 9999 FEW035 30/17 Q1016 NOSIG
Observed
Nov-21 @ 06:30 UTC
Wind
  • Variable at 2 KTS
Visibility
10,000+ meters
Flight Rules
VFR
Cloud Levels
  • Few at 3,500' AGL
Temperature
30°C / 86°F
Dewpoint
17°C / 63°F
Heat Index
31°C / 87°F
Humidity
46%
Altimeter
30" Hg
Pressure
1015.92 hPa
Previous

56 mins ago

VTCC 210600Z 20005KT 9999 FEW035 31/18 Q1016 NOSIG
Observed
Nov-21 @ 06:00 UTC
Wind
  • 200° at 5 KTS
Visibility
10,000+ meters
Flight Rules
VFR
Cloud Levels
  • Few at 3,500' AGL
Temperature
31°C / 88°F
Dewpoint
18°C / 64°F
Heat Index
32°C / 90°F
Humidity
46%
Altimeter
30" Hg
Pressure
1015.92 hPa
Previous

1 hour ago

VTCC 210530Z 20005KT 9999 FEW035 30/19 Q1017 NOSIG
Observed
Nov-21 @ 05:30 UTC
Wind
  • 200° at 5 KTS
Visibility
10,000+ meters
Flight Rules
VFR
Cloud Levels
  • Few at 3,500' AGL
Temperature
30°C / 86°F
Dewpoint
19°C / 66°F
Heat Index
31°C / 88°F
Humidity
52%
Altimeter
30.03" Hg
Pressure
1016.92 hPa